createdAt,value
2023-04-18T00:00:10.516Z,23.61
2023-04-18T00:01:10.643Z,23.61
2023-04-18T00:02:10.930Z,23.61
2023-04-18T00:03:11.207Z,23.61
2023-04-18T00:04:11.390Z,23.61
2023-04-18T00:05:11.154Z,23.60
2023-04-18T00:06:11.154Z,23.60
2023-04-18T00:07:11.145Z,23.60
2023-04-18T00:08:11.200Z,23.60
2023-04-18T00:09:11.295Z,23.60
2023-04-18T00:10:11.350Z,23.59
2023-04-18T00:11:11.386Z,23.58
2023-04-18T00:12:11.391Z,23.58
2023-04-18T00:13:11.447Z,23.58
2023-04-18T00:14:11.657Z,23.58
2023-04-18T00:15:11.523Z,23.58
2023-04-18T00:16:11.562Z,23.58
2023-04-18T00:17:11.615Z,23.58
2023-04-18T00:18:11.582Z,23.57
2023-04-18T00:19:11.659Z,23.58
2023-04-18T00:20:11.661Z,23.57
2023-04-18T00:21:11.680Z,23.57
2023-04-18T00:22:11.673Z,23.57
2023-04-18T00:23:13.486Z,23.57
2023-04-18T00:24:11.814Z,23.57
2023-04-18T00:25:11.781Z,23.57
2023-04-18T00:26:11.730Z,23.56
2023-04-18T00:27:11.746Z,23.57
2023-04-18T00:28:11.752Z,23.56
2023-04-18T00:29:11.768Z,23.56
2023-04-18T00:30:11.782Z,23.56
2023-04-18T00:31:11.813Z,23.56
2023-04-18T00:32:11.853Z,23.56
2023-04-18T00:33:11.847Z,23.55
2023-04-18T00:34:12.065Z,23.55
2023-04-18T00:35:11.864Z,23.55
2023-04-18T00:36:11.917Z,23.55
2023-04-18T00:37:11.916Z,23.54
2023-04-18T00:38:11.918Z,23.55
2023-04-18T00:39:11.928Z,23.54
2023-04-18T00:40:11.971Z,23.54
2023-04-18T00:41:12.050Z,23.54
2023-04-18T00:42:12.067Z,23.54
2023-04-18T00:43:12.056Z,23.54
2023-04-18T00:44:12.219Z,23.54
2023-04-18T00:45:12.138Z,23.53
2023-04-18T00:46:12.222Z,23.53
2023-04-18T00:47:12.249Z,23.54
2023-04-18T00:48:12.228Z,23.54
2023-04-18T00:49:12.253Z,23.54
2023-04-18T00:50:12.318Z,23.53
2023-04-18T00:51:12.315Z,23.53
2023-04-18T00:52:12.383Z,23.53
2023-04-18T00:53:12.438Z,23.53
2023-04-18T00:54:12.544Z,23.52
2023-04-18T00:55:12.499Z,23.53
2023-04-18T00:56:12.512Z,23.53
2023-04-18T00:57:12.521Z,23.53
2023-04-18T00:58:12.524Z,23.52
2023-04-18T00:59:12.573Z,23.52
2023-04-18T01:00:12.590Z,23.51
2023-04-18T01:01:12.669Z,23.52
2023-04-18T01:02:12.608Z,23.52
2023-04-18T01:03:12.659Z,23.51
2023-04-18T01:04:13.066Z,23.51
2023-04-18T01:05:12.620Z,23.51
2023-04-18T01:06:12.620Z,23.51
2023-04-18T01:07:12.647Z,23.52
2023-04-18T01:08:12.633Z,23.51
2023-04-18T01:09:12.663Z,23.51
2023-04-18T01:10:12.649Z,23.51
2023-04-18T01:11:12.666Z,23.51
2023-04-18T01:12:12.668Z,23.50
2023-04-18T01:13:12.676Z,23.50
2023-04-18T01:14:12.894Z,23.50
2023-04-18T01:15:12.698Z,23.50
2023-04-18T01:16:12.718Z,23.50
2023-04-18T01:17:12.697Z,23.50
2023-04-18T01:18:12.705Z,23.50
2023-04-18T01:19:12.718Z,23.50
2023-04-18T01:20:12.693Z,23.50
2023-04-18T01:21:12.684Z,23.50
2023-04-18T01:22:12.633Z,23.50
2023-04-18T01:23:12.711Z,23.49
2023-04-18T01:24:12.830Z,23.49
2023-04-18T01:25:12.645Z,23.49
2023-04-18T01:26:12.661Z,23.49
2023-04-18T01:27:12.656Z,23.49
2023-04-18T01:28:12.675Z,23.48
2023-04-18T01:29:12.779Z,23.48
2023-04-18T01:30:12.650Z,23.49
2023-04-18T01:31:12.689Z,23.49
2023-04-18T01:32:12.662Z,23.48
2023-04-18T01:33:12.674Z,23.47
2023-04-18T01:34:12.838Z,23.48
2023-04-18T01:35:12.685Z,23.47
2023-04-18T01:36:12.680Z,23.47
2023-04-18T01:37:12.629Z,23.46
2023-04-18T01:38:12.650Z,23.47
2023-04-18T01:39:12.651Z,23.47
2023-04-18T01:40:12.655Z,23.46
2023-04-18T01:41:12.653Z,23.46
2023-04-18T01:42:12.931Z,23.46
2023-04-18T01:43:12.684Z,23.46
2023-04-18T01:44:12.847Z,23.45
2023-04-18T01:45:12.653Z,23.46
2023-04-18T01:46:12.696Z,23.45
2023-04-18T01:47:12.653Z,23.45
2023-04-18T01:48:12.685Z,23.45
2023-04-18T01:49:12.678Z,23.45
2023-04-18T01:50:12.684Z,23.45
2023-04-18T01:51:12.681Z,23.45
2023-04-18T01:52:12.694Z,23.45
2023-04-18T01:53:12.704Z,23.44
2023-04-18T01:54:12.979Z,23.44
2023-04-18T01:55:12.745Z,23.44
2023-04-18T01:56:12.721Z,23.45
2023-04-18T01:57:12.676Z,23.44
2023-04-18T01:58:12.669Z,23.43
2023-04-18T01:59:12.691Z,23.44
2023-04-18T02:00:12.699Z,23.44
2023-04-18T02:01:12.733Z,23.44
2023-04-18T02:02:12.790Z,23.44
2023-04-18T02:03:13.069Z,23.43
2023-04-18T02:04:12.939Z,23.44
2023-04-18T02:05:12.679Z,23.43
2023-04-18T02:06:12.666Z,23.43
2023-04-18T02:07:12.683Z,23.44
2023-04-18T02:08:12.696Z,23.43
2023-04-18T02:09:12.712Z,23.43
2023-04-18T02:10:12.705Z,23.42
2023-04-18T02:11:12.716Z,23.42
2023-04-18T02:12:12.751Z,23.43
2023-04-18T02:13:12.746Z,23.42
2023-04-18T02:14:12.972Z,23.42
2023-04-18T02:15:12.682Z,23.42
2023-04-18T02:16:12.719Z,23.42
2023-04-18T02:17:12.701Z,23.42
2023-04-18T02:18:12.765Z,23.42
2023-04-18T02:19:12.712Z,23.41
2023-04-18T02:20:12.729Z,23.42
2023-04-18T02:21:12.728Z,23.42
2023-04-18T02:22:12.747Z,23.41
2023-04-18T02:23:12.723Z,23.42
2023-04-18T02:24:12.919Z,23.41
2023-04-18T02:25:12.715Z,23.41
2023-04-18T02:26:12.723Z,23.41
2023-04-18T02:27:12.732Z,23.41
2023-04-18T02:28:12.740Z,23.41
2023-04-18T02:29:12.741Z,23.41
2023-04-18T02:30:12.751Z,23.40
2023-04-18T02:31:12.754Z,23.40
2023-04-18T02:32:12.862Z,23.40
2023-04-18T02:33:12.705Z,23.40
2023-04-18T02:34:13.001Z,23.40
2023-04-18T02:35:12.825Z,23.40
2023-04-18T02:36:12.777Z,23.40
2023-04-18T02:37:12.792Z,23.40
2023-04-18T02:38:12.748Z,23.39
2023-04-18T02:39:12.817Z,23.39
2023-04-18T02:40:12.814Z,23.39
2023-04-18T02:41:12.758Z,23.39
2023-04-18T02:42:12.768Z,23.39
2023-04-18T02:43:12.772Z,23.40
2023-04-18T02:44:13.109Z,23.39
2023-04-18T02:45:12.787Z,23.39
2023-04-18T02:46:12.869Z,23.39
2023-04-18T02:47:12.801Z,23.39
2023-04-18T02:48:12.827Z,23.39
2023-04-18T02:49:12.819Z,23.39
2023-04-18T02:50:12.825Z,23.39
2023-04-18T02:51:12.822Z,23.38
2023-04-18T02:52:12.837Z,23.39
2023-04-18T02:53:12.848Z,23.38
2023-04-18T02:54:13.085Z,23.38
2023-04-18T02:55:12.868Z,23.38
2023-04-18T02:56:12.811Z,23.38
2023-04-18T02:57:12.871Z,23.38
2023-04-18T02:58:12.879Z,23.37
2023-04-18T02:59:12.832Z,23.38
2023-04-18T03:00:12.913Z,23.38
2023-04-18T03:01:12.921Z,23.37
2023-04-18T03:02:12.952Z,23.37
2023-04-18T03:03:13.010Z,23.37
2023-04-18T03:04:13.171Z,23.37
2023-04-18T03:05:12.969Z,23.37
2023-04-18T03:06:12.936Z,23.37
2023-04-18T03:07:12.907Z,23.37
2023-04-18T03:08:12.899Z,23.36
2023-04-18T03:09:12.902Z,23.37
2023-04-18T03:10:12.976Z,23.36
2023-04-18T03:11:12.960Z,23.36
2023-04-18T03:12:12.942Z,23.35
2023-04-18T03:13:12.984Z,23.36
2023-04-18T03:14:13.156Z,23.36
2023-04-18T03:15:12.975Z,23.36
2023-04-18T03:16:13.021Z,23.35
2023-04-18T03:17:12.963Z,23.35
2023-04-18T03:18:12.971Z,23.35
2023-04-18T03:19:12.997Z,23.36
2023-04-18T03:20:12.990Z,23.35
2023-04-18T03:21:12.990Z,23.36
2023-04-18T03:22:12.987Z,23.35
2023-04-18T03:23:13.044Z,23.35
2023-04-18T03:24:13.240Z,23.35
2023-04-18T03:25:13.018Z,23.35
2023-04-18T03:26:13.016Z,23.35
2023-04-18T03:27:12.979Z,23.35
2023-04-18T03:28:13.030Z,23.34
2023-04-18T03:29:13.041Z,23.34
2023-04-18T03:30:13.012Z,23.34
2023-04-18T03:31:13.069Z,23.35
2023-04-18T03:32:13.067Z,23.33
2023-04-18T03:33:13.073Z,23.34
2023-04-18T03:34:13.277Z,23.34
2023-04-18T03:35:13.098Z,23.33
2023-04-18T03:36:13.197Z,23.33
2023-04-18T03:37:13.128Z,23.33
2023-04-18T03:38:13.260Z,23.33
2023-04-18T03:39:13.107Z,23.33
2023-04-18T03:40:13.129Z,23.32
2023-04-18T03:41:13.124Z,23.32
2023-04-18T03:42:13.140Z,23.31
2023-04-18T03:43:13.142Z,23.32
2023-04-18T03:44:13.408Z,23.32
2023-04-18T03:45:13.221Z,23.32
2023-04-18T03:46:13.205Z,23.32
2023-04-18T03:47:13.201Z,23.32
2023-04-18T03:48:13.207Z,23.32
2023-04-18T03:49:13.178Z,23.32
2023-04-18T03:50:13.228Z,23.31
2023-04-18T03:51:13.200Z,23.31
2023-04-18T03:52:13.249Z,23.31
2023-04-18T03:53:13.252Z,23.31
2023-04-18T03:54:13.323Z,23.31
2023-04-18T03:55:13.262Z,23.31
2023-04-18T03:56:13.281Z,23.30
2023-04-18T03:57:13.285Z,23.29
2023-04-18T03:58:13.279Z,23.30
2023-04-18T03:59:13.302Z,23.30
2023-04-18T04:00:13.294Z,23.30
2023-04-18T04:01:13.306Z,23.30
2023-04-18T04:02:13.395Z,23.30
2023-04-18T04:03:13.468Z,23.30
2023-04-18T04:04:13.571Z,23.29
2023-04-18T04:05:13.336Z,23.30
2023-04-18T04:06:13.338Z,23.30
2023-04-18T04:07:13.340Z,23.30
2023-04-18T04:08:13.412Z,23.30
2023-04-18T04:09:13.365Z,23.30
2023-04-18T04:10:13.373Z,23.28
2023-04-18T04:11:13.374Z,23.29
2023-04-18T04:12:13.440Z,23.29
2023-04-18T04:13:13.390Z,23.28
2023-04-18T04:14:13.768Z,23.29
2023-04-18T04:15:13.429Z,23.28
2023-04-18T04:16:13.467Z,23.28
2023-04-18T04:17:13.410Z,23.28
2023-04-18T04:18:13.488Z,23.28
2023-04-18T04:19:13.515Z,23.29
2023-04-18T04:20:13.516Z,23.28
2023-04-18T04:21:13.559Z,23.28
2023-04-18T04:22:13.545Z,23.28
2023-04-18T04:23:13.493Z,23.27
2023-04-18T04:24:13.673Z,23.28
2023-04-18T04:25:13.565Z,23.27
2023-04-18T04:26:13.561Z,23.28
2023-04-18T04:27:13.542Z,23.27
2023-04-18T04:28:13.654Z,23.27
2023-04-18T04:29:13.584Z,23.27
2023-04-18T04:30:13.715Z,23.28
2023-04-18T04:31:13.620Z,23.27
2023-04-18T04:32:13.604Z,23.26
2023-04-18T04:33:13.625Z,23.27
2023-04-18T04:34:13.776Z,23.26
2023-04-18T04:35:14.456Z,23.26
2023-04-18T04:36:13.673Z,23.26
2023-04-18T04:37:13.677Z,23.26
2023-04-18T04:38:13.613Z,23.26
2023-04-18T04:39:13.624Z,23.26
2023-04-18T04:40:13.625Z,23.25
2023-04-18T04:41:13.633Z,23.26
2023-04-18T04:42:13.706Z,23.25
2023-04-18T04:43:13.709Z,23.25
2023-04-18T04:44:13.793Z,23.24
2023-04-18T04:45:13.746Z,23.24
2023-04-18T04:46:13.897Z,23.25
2023-04-18T04:47:13.672Z,23.25
2023-04-18T04:48:13.675Z,23.25
2023-04-18T04:49:13.693Z,23.26
2023-04-18T04:50:13.759Z,23.26
2023-04-18T04:51:13.744Z,23.25
2023-04-18T04:52:13.769Z,23.25
2023-04-18T04:53:13.756Z,23.24
2023-04-18T04:54:14.245Z,23.25
2023-04-18T04:55:13.770Z,23.25
2023-04-18T04:56:13.775Z,23.25
2023-04-18T04:57:13.783Z,23.25
2023-04-18T04:58:13.787Z,23.25
2023-04-18T04:59:13.797Z,23.25
2023-04-18T05:00:13.833Z,23.24
2023-04-18T05:01:13.884Z,23.24
2023-04-18T05:02:13.923Z,23.25
2023-04-18T05:03:14.091Z,23.24
2023-04-18T05:04:14.286Z,23.24
2023-04-18T05:05:13.859Z,23.24
2023-04-18T05:06:13.875Z,23.24
2023-04-18T05:07:13.908Z,23.23
2023-04-18T05:08:13.972Z,23.23
2023-04-18T05:09:13.928Z,23.24
2023-04-18T05:10:13.942Z,23.23
2023-04-18T05:11:13.956Z,23.24
2023-04-18T05:12:13.939Z,23.23
2023-04-18T05:13:14.024Z,23.23
2023-04-18T05:14:14.139Z,23.22
2023-04-18T05:15:14.011Z,23.23
2023-04-18T05:16:14.072Z,23.23
2023-04-18T05:17:14.050Z,23.22
2023-04-18T05:18:14.061Z,23.22
2023-04-18T05:19:14.057Z,23.22
2023-04-18T05:20:14.069Z,23.23
2023-04-18T05:21:14.071Z,23.22
2023-04-18T05:22:14.075Z,23.22
2023-04-18T05:23:14.131Z,23.22
2023-04-18T05:24:14.417Z,23.23
2023-04-18T05:25:14.159Z,23.22
2023-04-18T05:26:14.145Z,23.22
2023-04-18T05:27:14.770Z,23.22
2023-04-18T05:28:14.167Z,23.22
2023-04-18T05:29:14.166Z,23.22
2023-04-18T05:30:14.187Z,23.22
2023-04-18T05:31:14.216Z,23.22
2023-04-18T05:32:14.182Z,23.22
2023-04-18T05:33:14.204Z,23.22
2023-04-18T05:34:14.422Z,23.21
2023-04-18T05:35:14.263Z,23.21
2023-04-18T05:36:14.228Z,23.22
2023-04-18T05:37:14.330Z,23.20
2023-04-18T05:38:14.299Z,23.19
2023-04-18T05:39:14.333Z,23.19
2023-04-18T05:40:14.373Z,23.19
2023-04-18T05:41:14.443Z,23.18
2023-04-18T05:42:14.448Z,23.10
2023-04-18T05:43:14.483Z,22.97
2023-04-18T05:44:14.531Z,22.83
2023-04-18T05:45:14.598Z,22.60
2023-04-18T05:46:14.544Z,22.43
2023-04-18T05:47:14.566Z,22.31
2023-04-18T05:48:14.566Z,22.26
2023-04-18T05:49:14.622Z,22.23
2023-04-18T05:50:14.638Z,22.25
2023-04-18T05:51:15.029Z,22.29
2023-04-18T05:52:14.696Z,22.35
2023-04-18T05:53:14.717Z,22.41
2023-04-18T05:54:14.884Z,22.48
2023-04-18T05:55:14.719Z,22.54
2023-04-18T05:56:14.844Z,22.61
2023-04-18T05:57:15.040Z,22.67
2023-04-18T05:58:14.884Z,22.73
2023-04-18T05:59:16.523Z,22.80
2023-04-18T06:00:15.005Z,22.86
2023-04-18T06:01:15.536Z,22.90
2023-04-18T06:02:15.063Z,22.96
2023-04-18T06:03:15.199Z,23.02
2023-04-18T06:04:15.358Z,23.07
2023-04-18T06:05:15.448Z,23.12
2023-04-18T06:06:15.105Z,23.17
2023-04-18T06:07:15.573Z,23.22
2023-04-18T06:08:15.111Z,23.25
2023-04-18T06:09:15.051Z,23.29
2023-04-18T06:10:15.063Z,23.32
2023-04-18T06:11:15.079Z,23.34
2023-04-18T06:12:15.065Z,23.37
2023-04-18T06:13:15.079Z,23.39
2023-04-18T06:14:15.446Z,23.41
2023-04-18T06:15:15.209Z,23.44
2023-04-18T06:16:15.288Z,23.47
2023-04-18T06:17:15.213Z,23.49
2023-04-18T06:18:15.229Z,23.52
2023-04-18T06:19:15.546Z,23.54
2023-04-18T06:20:15.346Z,23.56
2023-04-18T06:21:17.493Z,23.57
2023-04-18T06:22:16.025Z,23.58
2023-04-18T06:23:15.456Z,23.60
2023-04-18T06:24:15.859Z,23.62
2023-04-18T06:25:15.596Z,23.64
2023-04-18T06:26:15.644Z,23.65
2023-04-18T06:27:30.262Z,23.66
2023-04-18T06:28:16.742Z,23.68
2023-04-18T06:29:16.027Z,23.70
2023-04-18T06:30:15.716Z,23.72
2023-04-18T06:31:16.050Z,23.73
2023-04-18T06:32:15.737Z,23.74
2023-04-18T06:33:16.641Z,23.78
2023-04-18T06:34:16.048Z,23.78
2023-04-18T06:35:16.056Z,23.80
2023-04-18T06:36:15.721Z,23.81
2023-04-18T06:37:15.771Z,23.80
2023-04-18T06:38:15.891Z,23.71
2023-04-18T06:39:15.888Z,23.60
2023-04-18T06:40:15.894Z,23.46
2023-04-18T06:41:15.918Z,23.39
2023-04-18T06:42:15.920Z,23.38
2023-04-18T06:43:15.914Z,23.38
2023-04-18T06:44:16.038Z,23.38
2023-04-18T06:45:15.913Z,23.40
2023-04-18T06:46:16.008Z,23.43
2023-04-18T06:47:15.896Z,23.45
2023-04-18T06:48:16.043Z,23.48
2023-04-18T06:49:15.899Z,23.51
2023-04-18T06:50:15.964Z,23.55
2023-04-18T06:51:16.017Z,23.58
2023-04-18T06:52:16.074Z,23.62
2023-04-18T06:53:16.651Z,23.65
2023-04-18T06:54:16.299Z,23.67
2023-04-18T06:55:16.320Z,23.70
2023-04-18T06:56:16.296Z,23.75
2023-04-18T06:57:16.378Z,23.78
2023-04-18T06:58:16.419Z,23.80
2023-04-18T06:59:16.639Z,23.82
2023-04-18T07:00:16.633Z,23.84
2023-04-18T07:01:16.761Z,23.85
2023-04-18T07:02:16.669Z,23.88
2023-04-18T07:03:16.899Z,23.91
2023-04-18T07:04:17.214Z,23.93
2023-04-18T07:05:16.846Z,23.96
2023-04-18T07:06:16.900Z,23.98
2023-04-18T07:07:16.897Z,24.01
2023-04-18T07:08:16.960Z,24.03
2023-04-18T07:09:16.997Z,24.04
2023-04-18T07:10:17.026Z,24.06
2023-04-18T07:11:17.076Z,24.07
2023-04-18T07:12:17.120Z,24.09
2023-04-18T07:13:17.182Z,24.10
2023-04-18T07:14:17.346Z,24.12
2023-04-18T07:15:17.342Z,24.13
2023-04-18T07:16:17.271Z,24.15
2023-04-18T07:17:17.364Z,24.16
2023-04-18T07:18:30.317Z,24.18
2023-04-18T07:19:18.407Z,24.19
2023-04-18T07:20:17.443Z,24.21
2023-04-18T07:21:17.387Z,24.21
2023-04-18T07:22:17.330Z,24.23
2023-04-18T07:23:17.321Z,24.22
2023-04-18T07:24:17.339Z,24.23
2023-04-18T07:25:17.313Z,24.24
2023-04-18T07:26:17.328Z,24.24
2023-04-18T07:27:17.351Z,24.25
2023-04-18T07:28:17.451Z,24.26
2023-04-18T07:29:17.343Z,24.26
2023-04-18T07:30:17.660Z,24.27
2023-04-18T07:31:17.381Z,24.28
2023-04-18T07:32:17.325Z,24.29
2023-04-18T07:33:17.263Z,24.29
2023-04-18T07:34:17.242Z,24.25
2023-04-18T07:35:17.654Z,24.18
2023-04-18T07:36:17.553Z,24.09
2023-04-18T07:37:17.287Z,24.01
2023-04-18T07:38:17.312Z,23.95
2023-04-18T07:39:17.324Z,23.92
2023-04-18T07:40:17.327Z,23.89
2023-04-18T07:41:17.336Z,23.87
2023-04-18T07:42:17.330Z,23.85
2023-04-18T07:43:18.104Z,23.85
2023-04-18T07:44:17.457Z,23.87
2023-04-18T07:45:17.363Z,23.88
2023-04-18T07:46:17.384Z,23.91
2023-04-18T07:47:21.968Z,23.91
2023-04-18T07:48:18.480Z,23.93
2023-04-18T07:49:17.437Z,23.94
2023-04-18T07:50:17.453Z,23.96
2023-04-18T07:51:17.460Z,23.97
2023-04-18T07:52:17.416Z,23.98
2023-04-18T07:53:17.526Z,24.00
2023-04-18T07:54:17.628Z,24.01
2023-04-18T07:55:17.399Z,24.03
2023-04-18T07:56:17.626Z,24.03
2023-04-18T07:57:17.493Z,24.02
2023-04-18T07:58:17.557Z,24.02
2023-04-18T07:59:17.572Z,24.03
2023-04-18T08:00:17.655Z,24.05
2023-04-18T08:01:17.673Z,24.08
2023-04-18T08:02:18.167Z,24.09
2023-04-18T08:03:17.999Z,24.12
2023-04-18T08:04:17.993Z,24.14
2023-04-18T08:05:17.880Z,24.15
2023-04-18T08:06:17.905Z,24.16
2023-04-18T08:07:17.962Z,24.18
2023-04-18T08:08:18.080Z,24.20
2023-04-18T08:09:20.079Z,24.21
2023-04-18T08:10:18.358Z,24.21
2023-04-18T08:11:18.345Z,24.24
2023-04-18T08:12:18.569Z,24.24
2023-04-18T08:13:18.474Z,24.25
2023-04-18T08:14:18.508Z,24.27
2023-04-18T08:15:18.580Z,24.28
2023-04-18T08:16:18.701Z,24.29
2023-04-18T08:17:18.588Z,24.30
2023-04-18T08:18:18.662Z,24.30
2023-04-18T08:19:19.087Z,24.30
2023-04-18T08:20:18.830Z,24.31
2023-04-18T08:21:18.735Z,24.31
2023-04-18T08:22:18.809Z,24.29
2023-04-18T08:23:18.805Z,24.29
2023-04-18T08:24:18.909Z,24.30
2023-04-18T08:25:18.918Z,24.30
2023-04-18T08:26:18.989Z,24.27
2023-04-18T08:27:18.922Z,24.21
2023-04-18T08:28:18.975Z,24.15
2023-04-18T08:29:18.986Z,24.08
2023-04-18T08:30:18.981Z,23.97
2023-04-18T08:31:19.103Z,23.88
2023-04-18T08:32:19.081Z,23.76
2023-04-18T08:33:19.073Z,23.67
2023-04-18T08:34:19.182Z,23.59
2023-04-18T08:35:19.141Z,23.53
2023-04-18T08:36:19.181Z,23.48
2023-04-18T08:37:19.218Z,23.41
2023-04-18T08:38:19.247Z,23.37
2023-04-18T08:39:19.251Z,23.29
2023-04-18T08:40:19.414Z,23.26
2023-04-18T08:41:19.376Z,23.19
2023-04-18T08:42:19.484Z,23.17
2023-04-18T08:43:19.609Z,23.14
2023-04-18T08:44:19.562Z,23.18
2023-04-18T08:45:19.566Z,23.22
2023-04-18T08:46:19.654Z,23.26
2023-04-18T08:47:19.689Z,23.30
2023-04-18T08:48:20.099Z,23.32
2023-04-18T08:49:19.729Z,23.34
2023-04-18T08:50:19.954Z,23.35
2023-04-18T08:51:19.886Z,23.36
2023-04-18T08:52:19.862Z,23.36
2023-04-18T08:53:20.236Z,23.35
2023-04-18T08:54:20.045Z,23.34
2023-04-18T08:55:19.979Z,23.34
2023-04-18T08:56:20.038Z,23.34
2023-04-18T08:57:20.047Z,23.32
2023-04-18T08:58:20.160Z,23.30
2023-04-18T08:59:20.122Z,23.29
2023-04-18T09:00:20.230Z,23.28
2023-04-18T09:01:20.285Z,23.26
2023-04-18T09:02:20.349Z,23.25
2023-04-18T09:03:20.365Z,23.26
2023-04-18T09:04:20.571Z,23.26
2023-04-18T09:05:20.456Z,23.29
2023-04-18T09:06:20.429Z,23.32
2023-04-18T09:07:20.480Z,23.37
2023-04-18T09:08:20.533Z,23.40
2023-04-18T09:09:20.618Z,23.44
2023-04-18T09:10:20.555Z,23.49
2023-04-18T09:11:20.612Z,23.53
2023-04-18T09:12:20.566Z,23.57
2023-04-18T09:13:20.802Z,23.58
2023-04-18T09:14:20.595Z,23.58
2023-04-18T09:15:20.614Z,23.59
2023-04-18T09:16:20.710Z,23.60
2023-04-18T09:17:20.584Z,23.59
2023-04-18T09:18:20.591Z,23.58
2023-04-18T09:19:20.674Z,23.57
2023-04-18T09:20:20.722Z,23.57
2023-04-18T09:21:20.670Z,23.55
2023-04-18T09:22:20.660Z,23.56
2023-04-18T09:23:20.694Z,23.57
2023-04-18T09:24:20.736Z,23.59
2023-04-18T09:25:20.754Z,23.61
2023-04-18T09:26:20.721Z,23.62
2023-04-18T09:27:21.132Z,23.64
2023-04-18T09:28:20.702Z,23.67
2023-04-18T09:29:20.729Z,23.69
2023-04-18T09:30:20.889Z,23.73
2023-04-18T09:31:20.795Z,23.76
2023-04-18T09:32:21.209Z,23.78
2023-04-18T09:33:20.807Z,23.79
2023-04-18T09:34:20.807Z,23.76
2023-04-18T09:35:20.780Z,23.75
2023-04-18T09:36:21.163Z,23.74
2023-04-18T09:37:20.779Z,23.72
2023-04-18T09:38:20.881Z,23.72
2023-04-18T09:39:20.815Z,23.70
2023-04-18T09:40:20.810Z,23.70
2023-04-18T09:41:21.691Z,23.71
2023-04-18T09:42:20.813Z,23.73
2023-04-18T09:43:20.839Z,23.73
2023-04-18T09:44:21.141Z,23.74
2023-04-18T09:45:20.965Z,23.76
2023-04-18T09:46:21.067Z,23.77
2023-04-18T09:47:21.135Z,23.76
2023-04-18T09:48:21.184Z,23.78
2023-04-18T09:49:21.229Z,23.79
2023-04-18T09:50:21.270Z,23.80
2023-04-18T09:51:21.695Z,23.82
2023-04-18T09:52:21.344Z,23.85
2023-04-18T09:53:21.458Z,23.86
2023-04-18T09:54:21.511Z,23.89
2023-04-18T09:55:21.552Z,23.92
2023-04-18T09:56:21.617Z,23.93
2023-04-18T09:57:21.736Z,23.90
2023-04-18T09:58:21.731Z,23.89
2023-04-18T09:59:21.832Z,23.90
2023-04-18T10:00:21.888Z,23.90
2023-04-18T10:01:22.020Z,23.90
2023-04-18T10:02:22.147Z,23.91
2023-04-18T10:03:22.237Z,23.91
2023-04-18T10:04:22.245Z,23.90
2023-04-18T10:05:22.246Z,23.90
2023-04-18T10:06:22.225Z,23.88
2023-04-18T10:07:22.315Z,23.88
2023-04-18T10:08:22.368Z,23.85
2023-04-18T10:09:22.434Z,23.86
2023-04-18T10:10:22.528Z,23.86
2023-04-18T10:11:22.589Z,23.85
2023-04-18T10:12:22.649Z,23.85
2023-04-18T10:13:22.652Z,23.86
2023-04-18T10:14:22.745Z,23.85
2023-04-18T10:15:22.838Z,23.86
2023-04-18T10:16:23.200Z,23.86
2023-04-18T10:17:23.025Z,23.82
2023-04-18T10:18:23.168Z,23.81
2023-04-18T10:19:23.001Z,23.79
2023-04-18T10:20:23.118Z,23.77
2023-04-18T10:21:23.033Z,23.73
2023-04-18T10:22:23.246Z,23.73
2023-04-18T10:23:23.041Z,23.72
2023-04-18T10:24:23.032Z,23.70
2023-04-18T10:25:23.072Z,23.66
2023-04-18T10:26:23.052Z,23.64
2023-04-18T10:27:23.162Z,23.61
2023-04-18T10:28:23.116Z,23.60
2023-04-18T10:29:24.037Z,23.56
2023-04-18T10:30:23.141Z,23.53
2023-04-18T10:31:23.274Z,23.49
2023-04-18T10:32:23.753Z,23.47
2023-04-18T10:33:30.429Z,23.47
2023-04-18T10:34:24.185Z,23.46
2023-04-18T10:35:23.137Z,23.45
2023-04-18T10:36:23.129Z,23.45
2023-04-18T10:37:23.143Z,23.42
2023-04-18T10:38:23.673Z,23.42
2023-04-18T10:39:23.157Z,23.43
2023-04-18T10:40:23.208Z,23.44
2023-04-18T10:41:23.101Z,23.43
2023-04-18T10:42:23.113Z,23.40
2023-04-18T10:43:23.120Z,23.39
2023-04-18T10:44:23.551Z,23.38
2023-04-18T10:45:23.092Z,23.38
2023-04-18T10:46:31.904Z,23.38
2023-04-18T10:47:24.216Z,23.37
2023-04-18T10:48:23.181Z,23.32
2023-04-18T10:49:25.893Z,23.30
2023-04-18T10:50:23.132Z,23.29
2023-04-18T10:51:23.077Z,23.29
2023-04-18T10:52:23.031Z,23.30
2023-04-18T10:53:23.195Z,23.31
2023-04-18T10:54:23.038Z,23.29
2023-04-18T10:55:22.998Z,23.31
2023-04-18T10:56:23.012Z,23.32
2023-04-18T10:57:22.977Z,23.32
2023-04-18T10:58:23.010Z,23.32
2023-04-18T10:59:23.216Z,23.31
2023-04-18T11:00:23.092Z,23.31
2023-04-18T11:01:23.120Z,23.32
2023-04-18T11:02:23.237Z,23.31
2023-04-18T11:03:23.161Z,23.32
2023-04-18T11:04:23.096Z,23.33
2023-04-18T11:05:23.107Z,23.34
2023-04-18T11:06:23.017Z,23.35
2023-04-18T11:07:23.098Z,23.35
2023-04-18T11:08:23.050Z,23.37
2023-04-18T11:09:23.109Z,23.38
2023-04-18T11:10:23.176Z,23.39
2023-04-18T11:11:23.007Z,23.40
2023-04-18T11:12:23.012Z,23.39
2023-04-18T11:13:23.068Z,23.39
2023-04-18T11:14:23.011Z,23.40
2023-04-18T11:15:23.027Z,23.41
2023-04-18T11:16:23.101Z,23.41
2023-04-18T11:17:23.066Z,23.42
2023-04-18T11:18:22.946Z,23.42
2023-04-18T11:19:23.281Z,23.42
2023-04-18T11:20:23.084Z,23.42
2023-04-18T11:21:22.976Z,23.42
2023-04-18T11:22:22.937Z,23.41
2023-04-18T11:23:23.011Z,23.41
2023-04-18T11:24:23.244Z,23.42
2023-04-18T11:25:24.290Z,23.40
2023-04-18T11:26:22.979Z,23.40
2023-04-18T11:27:22.916Z,23.41
2023-04-18T11:28:22.918Z,23.40
2023-04-18T11:29:22.926Z,23.41
2023-04-18T11:30:23.191Z,23.42
2023-04-18T11:31:22.987Z,23.42
2023-04-18T11:32:23.195Z,23.41
2023-04-18T11:33:23.070Z,23.35
2023-04-18T11:34:23.115Z,23.33
2023-04-18T11:35:23.186Z,23.28
2023-04-18T11:36:23.180Z,23.22
2023-04-18T11:37:23.242Z,23.24
2023-04-18T11:38:24.299Z,23.27
2023-04-18T11:39:23.296Z,23.28
2023-04-18T11:40:23.392Z,23.29
2023-04-18T11:41:23.417Z,23.28
2023-04-18T11:42:23.683Z,23.29
2023-04-18T11:43:23.516Z,23.31
2023-04-18T11:44:23.525Z,23.31
2023-04-18T11:45:24.158Z,23.31
2023-04-18T11:46:23.639Z,23.30
2023-04-18T11:47:23.689Z,23.30
2023-04-18T11:48:23.652Z,23.31
2023-04-18T11:49:23.729Z,23.32
2023-04-18T11:50:23.881Z,23.32
2023-04-18T11:51:23.855Z,23.32
2023-04-18T11:52:23.869Z,23.30
2023-04-18T11:53:23.905Z,23.29
2023-04-18T11:54:23.892Z,23.29
2023-04-18T11:55:24.062Z,23.32
2023-04-18T11:56:23.978Z,23.33
2023-04-18T11:57:24.003Z,23.35
2023-04-18T11:58:23.994Z,23.37
2023-04-18T11:59:23.995Z,23.42
2023-04-18T12:00:24.040Z,23.48
2023-04-18T12:01:24.011Z,23.51
2023-04-18T12:02:24.115Z,23.55
2023-04-18T12:03:24.461Z,23.59
2023-04-18T12:04:24.256Z,23.63
2023-04-18T12:05:24.396Z,23.67
2023-04-18T12:06:24.340Z,23.71
2023-04-18T12:07:24.192Z,23.74
2023-04-18T12:08:24.259Z,23.80
2023-04-18T12:09:24.326Z,23.82
2023-04-18T12:10:24.462Z,23.84
2023-04-18T12:11:24.476Z,23.86
2023-04-18T12:12:24.482Z,23.90
2023-04-18T12:13:24.612Z,23.93
2023-04-18T12:14:24.659Z,23.97
2023-04-18T12:15:24.661Z,23.99
2023-04-18T12:16:24.764Z,24.02
2023-04-18T12:17:24.811Z,24.06
2023-04-18T12:18:24.854Z,24.09
2023-04-18T12:19:24.877Z,24.13
2023-04-18T12:20:24.900Z,24.15
2023-04-18T12:21:24.970Z,24.17
2023-04-18T12:22:24.980Z,24.20
2023-04-18T12:23:25.028Z,24.22
2023-04-18T12:24:25.098Z,24.25
2023-04-18T12:25:27.353Z,24.28
2023-04-18T12:26:25.059Z,24.31
2023-04-18T12:27:25.122Z,24.33
2023-04-18T12:28:25.062Z,24.35
2023-04-18T12:29:25.087Z,24.37
2023-04-18T12:30:25.023Z,24.37
2023-04-18T12:31:25.046Z,24.39
2023-04-18T12:32:25.083Z,24.41
2023-04-18T12:33:24.984Z,24.43
2023-04-18T12:34:25.053Z,24.45
2023-04-18T12:35:25.054Z,24.47
2023-04-18T12:36:24.996Z,24.50
2023-04-18T12:37:24.972Z,24.51
2023-04-18T12:38:24.968Z,24.52
2023-04-18T12:39:24.937Z,24.53
2023-04-18T12:40:24.961Z,24.54
2023-04-18T12:41:24.940Z,24.57
2023-04-18T12:42:24.993Z,24.57
2023-04-18T12:43:24.902Z,24.59
2023-04-18T12:44:24.932Z,24.60
2023-04-18T12:45:24.913Z,24.62
2023-04-18T12:46:24.999Z,24.63
2023-04-18T12:47:24.989Z,24.64
2023-04-18T12:48:24.888Z,24.66
2023-04-18T12:49:24.890Z,24.67
2023-04-18T12:50:24.936Z,24.69
2023-04-18T12:51:24.875Z,24.70
2023-04-18T12:52:24.862Z,24.73